Time;durP1;ratioP1;P1;durP2;ratioP2;P2;SDS_P1;SDS_P2;PMS_P1;PMS_P2;Temp;Humidity;BMP_temperature;BMP_pressure;BME280_temperature;BME280_humidity;BME280_pressure;Samples;Min_cycle;Max_cycle;Signal;HPM_P1;HPM_P2
2021/06/26 00:00:00;;;;;;;19.43;13.40;;;15.80;99.90;;;;;;5084068;28;20966;-70
2021/06/26 00:02:45;;;;;;;13.47;11.37;;;15.80;99.90;;;;;;5080983;28;20408;-69
2021/06/26 00:05:31;;;;;;;14.70;13.00;;;15.70;99.90;;;;;;5083455;28;20396;-70
2021/06/26 00:08:17;;;;;;;18.90;14.63;;;15.70;99.90;;;;;;5072086;28;20448;-69
2021/06/26 00:11:03;;;;;;;17.67;14.47;;;15.60;99.90;;;;;;5067937;28;20564;-70
2021/06/26 00:13:50;;;;;;;15.03;13.33;;;15.50;99.90;;;;;;5069024;28;20417;-69
2021/06/26 00:16:36;;;;;;;18.83;14.07;;;15.50;99.90;;;;;;5074594;28;20999;-69
2021/06/26 00:19:22;;;;;;;15.47;13.93;;;15.60;99.90;;;;;;5073089;28;20455;-69
2021/06/26 00:22:07;;;;;;;15.07;13.03;;;15.70;99.90;;;;;;5083033;28;20425;-70
2021/06/26 00:24:53;;;;;;;19.10;13.57;;;15.70;99.90;;;;;;5079246;28;20424;-69
2021/06/26 00:27:39;;;;;;;14.57;12.50;;;15.60;99.90;;;;;;5080479;28;20433;-69
2021/06/26 00:30:27;;;;;;;18.87;13.30;;;15.50;99.90;;;;;;5073345;28;20423;-69
2021/06/26 00:33:12;;;;;;;17.07;15.27;;;15.40;99.90;;;;;;5080958;28;20908;-69
2021/06/26 00:35:58;;;;;;;17.30;13.83;;;15.30;99.90;;;;;;5080495;28;20399;-69
2021/06/26 00:38:43;;;;;;;21.00;13.43;;;15.30;99.90;;;;;;5071367;28;20574;-69
2021/06/26 00:41:29;;;;;;;22.33;14.13;;;15.30;99.90;;;;;;5071369;28;20426;-69
2021/06/26 00:44:15;;;;;;;25.50;16.03;;;15.30;99.90;;;;;;5072465;28;20504;-69
2021/06/26 00:47:10;;;;;;;19.27;15.67;;;15.40;99.90;;;;;;5082832;28;20573;-69
2021/06/26 00:49:58;;;;;;;24.60;15.23;;;15.40;99.90;;;;;;5073491;28;20438;-69
2021/06/26 00:52:44;;;;;;;27.33;18.07;;;15.60;99.90;;;;;;5078148;28;20392;-69
2021/06/26 00:55:30;;;;;;;21.10;16.00;;;15.70;99.90;;;;;;5078050;28;20430;-69
2021/06/26 00:58:15;;;;;;;26.07;16.43;;;15.80;99.90;;;;;;5077714;28;20584;-69
2021/06/26 01:01:01;;;;;;;43.77;17.57;;;15.90;99.90;;;;;;5078015;28;20476;-69
2021/06/26 01:03:48;;;;;;;38.10;19.77;;;15.90;99.90;;;;;;5070778;28;20443;-69
2021/06/26 01:06:34;;;;;;;25.90;18.40;;;15.90;99.90;;;;;;5069311;28;20451;-69
2021/06/26 01:09:20;;;;;;;65.57;18.40;;;15.90;99.90;;;;;;5078418;28;20423;-69
2021/06/26 01:12:06;;;;;;;163.20;19.53;;;15.80;99.90;;;;;;5071666;28;20441;-69
2021/06/26 01:14:52;;;;;;;61.70;18.73;;;15.70;99.90;;;;;;5075879;28;20424;-70
2021/06/26 01:17:38;;;;;;;24.53;18.50;;;15.70;99.90;;;;;;5077221;28;20432;-69
2021/06/26 01:20:26;;;;;;;21.33;19.10;;;15.70;99.90;;;;;;5084266;28;21054;-69
2021/06/26 01:23:13;;;;;;;55.30;18.07;;;15.70;99.90;;;;;;5083003;28;20458;-70
2021/06/26 01:25:59;;;;;;;19.67;17.57;;;15.70;99.90;;;;;;5077145;28;20399;-69
2021/06/26 01:28:44;;;;;;;33.77;17.57;;;15.70;99.90;;;;;;5078676;28;20427;-69
2021/06/26 01:31:30;;;;;;;30.63;17.20;;;15.70;99.90;;;;;;5077555;28;20466;-69
2021/06/26 01:34:16;;;;;;;35.60;16.20;;;15.60;99.90;;;;;;5076706;28;20429;-69
2021/06/26 01:37:01;;;;;;;26.23;14.73;;;15.50;99.90;;;;;;5082998;28;20542;-69
2021/06/26 01:39:48;;;;;;;74.57;16.03;;;15.50;99.90;;;;;;5105441;22;20601;-72
2021/06/26 01:42:34;;;;;;;206.63;17.90;;;15.50;99.90;;;;;;5080070;28;20416;-70
2021/06/26 01:45:21;;;;;;;28.97;15.03;;;15.30;99.90;;;;;;5078974;28;20453;-72
2021/06/26 01:48:08;;;;;;;70.10;15.37;;;15.30;99.90;;;;;;5076431;28;20414;-71
2021/06/26 01:50:54;;;;;;;16.63;14.90;;;15.20;99.90;;;;;;5078245;28;20417;-72
2021/06/26 01:53:39;;;;;;;16.50;14.90;;;15.20;99.90;;;;;;5061345;28;20414;-72
2021/06/26 01:56:27;;;;;;;20.13;15.50;;;15.20;99.90;;;;;;5083095;28;20509;-72
2021/06/26 01:59:13;;;;;;;34.57;15.53;;;15.20;99.90;;;;;;5079213;28;20838;-71
2021/06/26 02:01:58;;;;;;;49.27;15.63;;;15.20;99.90;;;;;;5075828;28;20441;-72
2021/06/26 02:04:44;;;;;;;17.47;15.70;;;15.30;99.90;;;;;;5074112;28;20989;-72
2021/06/26 02:07:30;;;;;;;18.07;15.40;;;15.30;99.90;;;;;;5082607;28;20395;-72
2021/06/26 02:10:15;;;;;;;17.03;15.43;;;15.40;99.90;;;;;;5072151;28;20460;-72
2021/06/26 02:13:02;;;;;;;16.47;14.97;;;15.40;99.90;;;;;;5080863;28;20938;-71
2021/06/26 02:15:48;;;;;;;17.47;15.60;;;15.50;99.90;;;;;;5082507;28;20525;-72
2021/06/26 02:18:34;;;;;;;18.07;15.47;;;15.50;99.90;;;;;;5070730;28;20442;-72
2021/06/26 02:21:19;;;;;;;17.40;15.70;;;15.60;99.90;;;;;;5079985;28;20985;-72
2021/06/26 02:24:06;;;;;;;23.60;15.60;;;15.60;99.90;;;;;;5084903;28;20435;-72
2021/06/26 02:26:51;;;;;;;34.17;16.40;;;15.60;99.90;;;;;;5077227;28;20395;-71
2021/06/26 02:29:38;;;;;;;22.17;16.20;;;15.60;99.90;;;;;;5079742;28;20416;-72
2021/06/26 02:32:24;;;;;;;20.70;15.23;;;15.50;99.90;;;;;;5087079;28;21021;-72
2021/06/26 02:35:11;;;;;;;42.03;15.77;;;15.50;99.90;;;;;;5087001;28;20471;-72
2021/06/26 02:37:57;;;;;;;44.60;18.17;;;15.40;99.90;;;;;;5084720;28;20456;-71
2021/06/26 02:40:42;;;;;;;24.33;16.43;;;15.40;99.90;;;;;;5076692;28;20446;-72
2021/06/26 02:43:28;;;;;;;21.43;17.43;;;15.40;99.90;;;;;;5086353;28;20468;-72
2021/06/26 02:46:15;;;;;;;24.70;14.70;;;15.30;99.90;;;;;;5079598;28;20410;-72
2021/06/26 02:49:01;;;;;;;22.33;17.47;;;15.30;99.90;;;;;;5082583;28;20442;-72
2021/06/26 02:51:48;;;;;;;85.80;17.20;;;15.40;99.90;;;;;;5081650;28;20428;-72
2021/06/26 02:54:34;;;;;;;74.20;16.73;;;15.50;99.90;;;;;;5061818;28;20442;-72
2021/06/26 02:57:20;;;;;;;219.30;16.27;;;15.40;99.90;;;;;;5083454;28;20917;-72
2021/06/26 03:00:08;;;;;;;105.70;17.27;;;15.30;99.90;;;;;;5079328;28;20447;-71
2021/06/26 03:02:55;;;;;;;97.30;16.73;;;15.30;99.90;;;;;;5080642;28;20468;-71
2021/06/26 03:05:40;;;;;;;31.57;14.40;;;15.20;99.90;;;;;;5075200;28;20427;-71
2021/06/26 03:08:26;;;;;;;37.80;14.57;;;15.10;99.90;;;;;;5086210;28;20444;-72
2021/06/26 03:11:12;;;;;;;14.40;13.00;;;15.10;99.90;;;;;;5080016;28;20444;-72
2021/06/26 03:13:57;;;;;;;14.03;12.50;;;15.20;99.90;;;;;;5094542;28;20451;-72
2021/06/26 03:16:43;;;;;;;16.30;14.60;;;15.30;99.90;;;;;;5075433;28;20418;-71
2021/06/26 03:19:30;;;;;;;14.43;13.03;;;15.40;99.90;;;;;;5081519;28;20928;-71
2021/06/26 03:22:16;;;;;;;15.43;13.83;;;15.50;99.90;;;;;;5073687;28;20473;-72
2021/06/26 03:25:01;;;;;;;13.60;12.20;;;15.50;99.90;;;;;;5071302;28;20449;-72
2021/06/26 03:27:47;;;;;;;13.13;11.87;;;15.50;99.90;;;;;;5075912;28;20400;-71
2021/06/26 03:30:32;;;;;;;13.27;11.70;;;15.50;99.90;;;;;;5068053;28;20427;-72
2021/06/26 03:33:18;;;;;;;11.50;10.40;;;15.50;99.90;;;;;;5083389;28;20465;-72
2021/06/26 03:36:06;;;;;;;11.20;10.00;;;15.50;99.90;;;;;;5077981;28;20464;-72
2021/06/26 03:38:51;;;;;;;30.27;11.07;;;15.40;99.90;;;;;;5077610;28;21031;-71
2021/06/26 03:41:37;;;;;;;18.30;10.90;;;15.40;99.90;;;;;;5068618;28;21053;-72
2021/06/26 03:44:22;;;;;;;16.00;11.53;;;15.30;99.90;;;;;;5078820;28;20429;-72
2021/06/26 03:47:08;;;;;;;13.47;12.07;;;15.40;99.90;;;;;;5081459;28;20446;-72
2021/06/26 03:49:54;;;;;;;14.53;12.83;;;15.30;99.90;;;;;;5063372;28;20443;-71
2021/06/26 03:52:41;;;;;;;14.10;12.60;;;15.20;99.90;;;;;;5078841;28;20420;-71
2021/06/26 03:55:27;;;;;;;14.17;12.23;;;15.20;99.90;;;;;;5073576;28;20467;-72
2021/06/26 03:58:13;;;;;;;13.33;11.90;;;15.20;99.90;;;;;;5073198;28;20449;-72
2021/06/26 04:00:58;;;;;;;57.53;13.83;;;15.20;99.90;;;;;;5077656;28;20497;-72
2021/06/26 04:03:46;;;;;;;153.77;14.00;;;15.20;99.90;;;;;;5075387;28;20408;-71
2021/06/26 04:06:32;;;;;;;45.97;12.40;;;15.10;99.90;;;;;;5082073;28;20431;-72
2021/06/26 04:09:19;;;;;;;108.13;13.27;;;15.00;99.90;;;;;;5075950;28;20963;-72
2021/06/26 04:12:06;;;;;;;192.47;16.17;;;14.70;99.90;;;;;;5093364;28;20424;-72
2021/06/26 04:14:52;;;;;;;134.67;16.37;;;14.60;99.90;;;;;;5082558;28;20549;-72
2021/06/26 04:17:38;;;;;;;25.43;14.50;;;14.50;99.90;;;;;;5065280;28;20473;-71
2021/06/26 04:20:24;;;;;;;84.57;14.40;;;14.50;99.90;;;;;;5080476;28;20469;-72
2021/06/26 04:23:09;;;;;;;82.80;15.17;;;14.60;99.90;;;;;;5073759;28;20430;-71
2021/06/26 04:25:57;;;;;;;33.47;11.70;;;14.60;99.90;;;;;;5087277;28;20458;-71
2021/06/26 04:28:42;;;;;;;41.57;12.30;;;14.60;99.90;;;;;;5080132;28;20594;-71
2021/06/26 04:31:28;;;;;;;27.77;12.10;;;14.70;99.90;;;;;;5082150;28;20430;-71
2021/06/26 04:34:14;;;;;;;13.13;11.87;;;14.60;99.90;;;;;;5074202;28;20913;-71
2021/06/26 04:36:59;;;;;;;24.90;11.77;;;14.60;99.90;;;;;;5084554;28;20423;-72
2021/06/26 04:39:45;;;;;;;15.70;13.07;;;14.70;99.90;;;;;;5082528;28;21020;-72
2021/06/26 04:42:32;;;;;;;16.90;13.20;;;14.80;99.90;;;;;;5073048;28;20872;-72
2021/06/26 04:45:18;;;;;;;23.93;12.97;;;14.90;99.90;;;;;;5080492;28;20424;-71
2021/06/26 04:48:04;;;;;;;17.10;13.10;;;15.00;99.90;;;;;;5090334;28;20460;-71
2021/06/26 04:50:50;;;;;;;15.27;11.33;;;15.10;99.90;;;;;;5074576;28;20417;-71
2021/06/26 04:53:35;;;;;;;12.87;11.57;;;15.20;99.90;;;;;;5072196;28;20425;-72
2021/06/26 04:56:21;;;;;;;14.53;11.90;;;15.20;99.90;;;;;;5077819;28;20423;-72
2021/06/26 04:59:08;;;;;;;19.23;12.80;;;15.30;99.90;;;;;;5074249;28;20445;-72
2021/06/26 05:01:54;;;;;;;22.40;12.73;;;15.30;99.90;;;;;;5075343;28;20479;-72
2021/06/26 05:04:39;;;;;;;12.37;11.27;;;15.40;99.90;;;;;;5077468;28;20443;-72
2021/06/26 05:07:25;;;;;;;23.00;13.47;;;15.40;99.90;;;;;;5092412;28;20424;-71
2021/06/26 05:10:11;;;;;;;112.57;13.10;;;15.50;99.90;;;;;;5072066;28;21005;-71
2021/06/26 05:12:57;;;;;;;164.90;14.27;;;15.30;99.90;;;;;;5080770;28;20418;-71
2021/06/26 05:15:44;;;;;;;98.97;12.83;;;15.20;99.90;;;;;;5076949;28;20424;-71
2021/06/26 05:18:30;;;;;;;58.37;11.23;;;15.10;99.90;;;;;;5081664;28;20679;-71
2021/06/26 05:21:16;;;;;;;11.83;10.67;;;15.10;99.90;;;;;;5075270;28;20495;-72
2021/06/26 05:24:01;;;;;;;18.07;11.33;;;15.10;99.90;;;;;;5079015;28;20554;-72
2021/06/26 05:26:47;;;;;;;13.80;12.40;;;15.20;99.90;;;;;;5071068;28;20442;-72
2021/06/26 05:29:34;;;;;;;11.60;10.50;;;15.40;99.90;;;;;;5076496;28;20501;-72
2021/06/26 05:32:21;;;;;;;11.97;10.67;;;15.50;99.90;;;;;;5080776;28;20444;-72
2021/06/26 05:35:08;;;;;;;10.80;9.80;;;15.60;99.90;;;;;;5079401;28;20910;-72
2021/06/26 05:37:54;;;;;;;11.57;10.57;;;15.70;99.90;;;;;;5074803;28;20965;-72
2021/06/26 05:40:39;;;;;;;11.23;10.13;;;15.90;99.90;;;;;;5068259;28;20825;-72
2021/06/26 05:43:25;;;;;;;14.13;11.50;;;16.00;99.90;;;;;;5076619;28;20507;-71
2021/06/26 05:46:11;;;;;;;12.57;11.47;;;16.10;99.90;;;;;;5081380;28;20415;-71
2021/06/26 05:48:59;;;;;;;12.37;11.27;;;16.20;99.90;;;;;;5083183;28;20423;-71
2021/06/26 05:51:44;;;;;;;13.00;11.70;;;16.30;99.90;;;;;;5072214;28;20524;-72
2021/06/26 05:54:30;;;;;;;19.93;11.70;;;16.40;99.90;;;;;;5081491;28;20767;-70
2021/06/26 05:57:16;;;;;;;13.93;12.60;;;16.60;99.90;;;;;;5076563;28;20466;-71
2021/06/26 06:00:01;;;;;;;12.57;11.30;;;16.70;99.90;;;;;;5073616;28;20469;-71
2021/06/26 06:02:50;;;;;;;12.97;11.63;;;16.80;99.90;;;;;;5064539;28;20436;-72
2021/06/26 06:05:37;;;;;;;11.60;10.50;;;16.80;99.90;;;;;;5072839;28;20470;-71
2021/06/26 06:08:23;;;;;;;11.87;10.67;;;16.90;99.90;;;;;;5080297;28;20813;-71
2021/06/26 06:11:09;;;;;;;13.00;11.40;;;17.00;99.90;;;;;;5075457;28;20420;-71
2021/06/26 06:13:55;;;;;;;12.77;11.47;;;17.20;99.90;;;;;;5081037;28;20453;-71
2021/06/26 06:16:40;;;;;;;14.60;11.53;;;17.20;99.90;;;;;;5071843;28;20430;-71
2021/06/26 06:19:26;;;;;;;13.43;12.03;;;17.30;99.90;;;;;;5072177;28;20919;-71
2021/06/26 06:22:13;;;;;;;14.73;11.63;;;17.40;99.90;;;;;;5081815;28;20505;-72
2021/06/26 06:24:58;;;;;;;14.67;12.07;;;17.60;99.90;;;;;;5077908;28;20456;-71
2021/06/26 06:27:44;;;;;;;15.60;11.00;;;17.70;99.90;;;;;;5077578;28;20532;-72
2021/06/26 06:30:31;;;;;;;12.40;11.10;;;17.80;99.90;;;;;;5075844;28;20425;-71
2021/06/26 06:33:17;;;;;;;13.77;11.97;;;17.90;99.90;;;;;;5076706;28;20456;-71
2021/06/26 06:36:06;;;;;;;12.53;11.17;;;18.10;99.90;;;;;;5070192;28;20977;-71
2021/06/26 06:38:54;;;;;;;15.43;12.83;;;18.10;99.90;;;;;;5074905;28;20464;-72
2021/06/26 06:41:40;;;;;;;12.73;11.43;;;18.30;99.90;;;;;;5069240;28;20473;-72
2021/06/26 06:44:25;;;;;;;16.77;11.53;;;18.40;99.90;;;;;;5077619;28;20428;-71
2021/06/26 06:47:11;;;;;;;11.80;10.53;;;18.50;99.90;;;;;;5063212;28;21006;-71
2021/06/26 06:49:57;;;;;;;18.80;11.20;;;18.60;99.90;;;;;;5075387;28;20443;-71
2021/06/26 06:52:43;;;;;;;11.47;10.37;;;18.60;99.90;;;;;;5062196;28;20526;-72
2021/06/26 06:55:30;;;;;;;11.30;10.23;;;18.60;99.90;;;;;;5067773;28;20479;-72
2021/06/26 06:58:15;;;;;;;17.07;11.00;;;18.70;99.90;;;;;;5072656;28;20460;-71
2021/06/26 07:01:01;;;;;;;12.17;10.23;;;18.80;99.90;;;;;;5078487;28;20523;-71
2021/06/26 07:03:47;;;;;;;21.73;10.90;;;18.90;99.90;;;;;;5078521;28;20452;-72
2021/06/26 07:06:32;;;;;;;14.03;11.43;;;19.00;99.90;;;;;;5086005;28;20944;-72
2021/06/26 07:09:18;;;;;;;11.63;10.30;;;19.00;99.90;;;;;;5081510;28;20508;-71
2021/06/26 07:12:06;;;;;;;12.93;11.60;;;19.20;99.90;;;;;;5077792;28;20456;-72
2021/06/26 07:14:52;;;;;;;12.07;10.87;;;19.30;99.90;;;;;;5080018;28;20961;-71
2021/06/26 07:17:37;;;;;;;15.20;10.80;;;19.30;99.90;;;;;;5079180;28;20418;-72
2021/06/26 07:20:23;;;;;;;14.80;13.13;;;19.40;99.90;;;;;;5082049;28;20467;-72
2021/06/26 07:23:09;;;;;;;13.10;10.93;;;19.40;99.90;;;;;;5080990;28;20429;-71
2021/06/26 07:25:54;;;;;;;11.90;10.70;;;19.50;99.90;;;;;;5086735;28;20428;-72
2021/06/26 07:28:41;;;;;;;12.07;10.80;;;19.60;99.90;;;;;;5074891;28;20516;-71
2021/06/26 07:31:27;;;;;;;15.90;10.03;;;19.70;99.90;;;;;;5081414;28;20410;-71
2021/06/26 07:34:13;;;;;;;14.50;9.00;;;19.70;99.90;;;;;;5083800;28;20568;-71
2021/06/26 07:36:58;;;;;;;14.10;9.97;;;19.70;99.90;;;;;;5075348;28;20448;-72
2021/06/26 07:39:43;;;;;;;7.67;6.80;;;19.80;99.90;;;;;;5093594;22;20617;-70
2021/06/26 07:42:29;;;;;;;9.53;7.57;;;20.00;99.90;;;;;;5075681;28;20474;-70
2021/06/26 07:45:16;;;;;;;7.37;6.50;;;20.20;99.90;;;;;;5088903;28;20448;-70
2021/06/26 07:48:02;;;;;;;9.80;6.97;;;20.30;99.90;;;;;;5088671;28;20438;-71
2021/06/26 07:50:50;;;;;;;9.17;6.73;;;20.40;99.90;;;;;;5080096;28;20486;-71
2021/06/26 07:53:36;;;;;;;9.90;7.03;;;20.60;99.90;;;;;;5085784;28;20994;-70
2021/06/26 07:56:22;;;;;;;8.83;6.83;;;20.60;99.90;;;;;;5074050;28;20409;-71
2021/06/26 07:59:07;;;;;;;8.03;6.67;;;20.70;99.90;;;;;;5083865;28;20538;-71
2021/06/26 08:01:55;;;;;;;9.43;7.43;;;20.80;99.90;;;;;;5080128;28;20559;-70
2021/06/26 08:04:40;;;;;;;10.90;6.80;;;20.80;99.90;;;;;;5080241;28;20548;-71
2021/06/26 08:07:26;;;;;;;8.60;7.07;;;20.80;99.90;;;;;;5087286;28;20446;-71
2021/06/26 08:10:12;;;;;;;6.40;5.77;;;21.00;99.90;;;;;;5085533;28;20469;-70
2021/06/26 08:12:58;;;;;;;9.50;6.20;;;21.10;99.90;;;;;;5087790;28;20977;-71
2021/06/26 08:15:45;;;;;;;6.93;6.23;;;21.20;99.90;;;;;;5081418;28;20785;-70
2021/06/26 08:18:32;;;;;;;7.83;6.37;;;21.20;99.90;;;;;;5087322;28;20458;-71
2021/06/26 08:21:20;;;;;;;8.40;6.47;;;21.30;99.90;;;;;;5080122;28;20956;-70
2021/06/26 08:24:06;;;;;;;6.47;5.83;;;21.40;99.90;;;;;;5073974;28;20446;-70
2021/06/26 08:26:52;;;;;;;7.07;6.00;;;21.50;99.90;;;;;;5085729;28;20446;-70
2021/06/26 08:29:38;;;;;;;127.20;17.07;;;21.60;99.90;;;;;;5082982;28;21040;-71
2021/06/26 08:32:24;;;;;;;10.87;7.33;;;21.70;99.90;;;;;;5080820;28;20438;-70
2021/06/26 08:35:11;;;;;;;6.70;5.30;;;21.70;99.90;;;;;;5088612;28;20969;-70
2021/06/26 08:37:57;;;;;;;8.57;4.90;;;21.70;99.80;;;;;;5084417;28;20929;-71
2021/06/26 08:40:44;;;;;;;7.97;6.50;;;21.50;97.90;;;;;;5077385;28;20440;-69
2021/06/26 08:43:30;;;;;;;8.30;6.10;;;21.50;99.50;;;;;;5088164;28;20435;-70
2021/06/26 08:46:17;;;;;;;8.80;6.20;;;21.70;99.90;;;;;;5085738;28;20467;-69
2021/06/26 08:49:03;;;;;;;8.17;5.37;;;21.70;99.90;;;;;;5080388;28;20459;-69
2021/06/26 08:51:51;;;;;;;10.30;5.60;;;21.90;99.90;;;;;;5085162;28;20419;-70
2021/06/26 08:54:37;;;;;;;6.20;5.10;;;22.00;99.90;;;;;;5083337;28;20577;-69
2021/06/26 08:57:30;;;;;;;6.37;5.57;;;21.90;97.40;;;;;;5081609;28;20445;-70
2021/06/26 09:00:18;;;;;;;9.13;4.30;;;22.00;99.90;;;;;;5084763;28;20441;-69
2021/06/26 09:03:09;;;;;;;8.10;5.70;;;22.10;99.90;;;;;;5082294;28;21062;-70
2021/06/26 09:06:03;;;;;;;5.80;5.10;;;22.00;97.60;;;;;;5079458;28;20419;-70
2021/06/26 09:08:51;;;;;;;7.00;5.83;;;22.10;97.90;;;;;;5081404;28;20860;-70
2021/06/26 09:11:37;;;;;;;10.10;5.60;;;22.00;99.40;;;;;;5085115;28;20488;-70
2021/06/26 09:14:23;;;;;;;6.13;5.50;;;22.10;97.10;;;;;;5072946;28;21008;-71
2021/06/26 09:17:08;;;;;;;6.37;5.20;;;22.20;98.50;;;;;;5071574;28;20423;-71
2021/06/26 09:19:56;;;;;;;6.43;5.23;;;22.40;98.50;;;;;;5071611;28;20903;-71
2021/06/26 09:22:43;;;;;;;5.47;4.77;;;22.50;99.70;;;;;;5070694;28;20494;-71
2021/06/26 09:25:32;;;;;;;6.00;5.20;;;22.80;99.90;;;;;;5071113;28;20417;-71
2021/06/26 09:28:26;;;;;;;7.43;5.40;;;22.90;94.80;;;;;;5071418;28;20419;-70
2021/06/26 09:31:16;;;;;;;5.80;5.30;;;23.00;96.70;;;;;;5071113;28;20435;-70
2021/06/26 09:34:03;;;;;;;6.33;5.73;;;23.10;92.80;;;;;;5071423;28;20977;-71
2021/06/26 09:37:00;;;;;;;5.63;5.03;;;23.20;96.40;;;;;;5071242;28;20428;-71
2021/06/26 09:39:46;;;;;;;5.80;5.03;;;23.10;92.70;;;;;;5075917;28;20463;-71
2021/06/26 09:42:36;;;;;;;11.03;5.33;;;23.00;91.60;;;;;;5081322;28;20463;-70
2021/06/26 09:45:23;;;;;;;9.70;5.40;;;23.10;93.70;;;;;;5091095;28;20934;-70
2021/06/26 09:48:09;;;;;;;7.13;5.03;;;23.10;90.40;;;;;;5085078;28;20467;-70
2021/06/26 09:50:54;;;;;;;5.83;4.73;;;23.00;90.30;;;;;;5087811;28;20450;-72
2021/06/26 09:53:51;;;;;;;7.63;4.90;;;23.20;96.40;;;;;;5076287;28;20417;-71
2021/06/26 09:56:39;;;;;;;5.97;5.13;;;23.30;90.70;;;;;;5090205;28;20472;-71
2021/06/26 09:59:32;;;;;;;5.77;5.17;;;23.40;91.40;;;;;;5091405;28;20450;-72
2021/06/26 10:02:22;;;;;;;12.97;5.10;;;23.40;84.80;;;;;;5091438;28;20633;-72
2021/06/26 10:05:09;;;;;;;6.73;4.83;;;23.20;78.60;;;;;;5073971;28;21051;-71
2021/06/26 10:07:56;;;;;;;5.20;4.70;;;23.20;85.10;;;;;;5085742;28;20569;-71
2021/06/26 10:10:42;;;;;;;5.13;4.40;;;23.20;79.00;;;;;;5084099;28;20466;-71
2021/06/26 10:13:29;;;;;;;12.13;5.13;;;23.20;85.90;;;;;;5085107;28;20438;-71
2021/06/26 10:16:16;;;;;;;15.73;5.60;;;23.50;87.90;;;;;;5084550;28;20813;-71
2021/06/26 10:19:04;;;;;;;7.23;5.40;;;23.60;86.80;;;;;;5080196;28;20466;-71
2021/06/26 10:21:49;;;;;;;8.40;6.33;;;23.80;90.20;;;;;;5078115;28;20423;-71
2021/06/26 10:24:36;;;;;;;11.60;6.70;;;23.90;91.30;;;;;;5075748;28;20431;-71
2021/06/26 10:27:24;;;;;;;9.07;7.13;;;23.80;91.10;;;;;;5079655;28;20845;-71
2021/06/26 10:30:14;;;;;;;7.03;5.80;;;23.60;90.40;;;;;;5086499;28;20462;-70
2021/06/26 10:33:03;;;;;;;6.57;5.00;;;23.80;94.50;;;;;;5082168;28;20478;-71
2021/06/26 10:35:53;;;;;;;10.13;5.40;;;23.80;92.70;;;;;;5090649;28;20466;-71
2021/06/26 10:38:42;;;;;;;8.70;5.47;;;23.80;87.90;;;;;;5087169;28;20886;-72
2021/06/26 10:41:28;;;;;;;19.63;5.70;;;23.80;90.60;;;;;;5089101;28;20466;-70
2021/06/26 10:44:13;;;;;;;11.30;6.20;;;23.80;90.80;;;;;;5086009;28;20801;-72
2021/06/26 10:46:59;;;;;;;11.03;4.63;;;23.80;90.70;;;;;;5083202;28;20528;-71
2021/06/26 10:49:46;;;;;;;10.07;5.97;;;23.70;88.30;;;;;;5089556;28;20496;-71
2021/06/26 10:52:31;;;;;;;9.53;5.87;;;23.70;88.30;;;;;;5086127;28;20488;-72
2021/06/26 10:55:27;;;;;;;9.53;5.00;;;23.70;84.30;;;;;;5079747;28;20486;-71
2021/06/26 10:58:13;;;;;;;7.40;6.17;;;23.90;84.80;;;;;;5090424;28;20438;-71
2021/06/26 11:00:59;;;;;;;6.23;5.50;;;24.00;86.20;;;;;;5086321;28;20443;-70
2021/06/26 11:03:47;;;;;;;7.73;6.03;;;24.00;80.60;;;;;;5082060;28;20859;-72
2021/06/26 11:06:34;;;;;;;6.00;5.20;;;24.30;87.40;;;;;;5078740;28;20410;-71
2021/06/26 11:09:20;;;;;;;9.37;6.43;;;24.60;87.60;;;;;;5083134;28;20463;-73
2021/06/26 11:12:11;;;;;;;13.27;5.63;;;24.90;87.90;;;;;;5080313;28;20411;-72
2021/06/26 11:14:58;;;;;;;6.43;5.17;;;24.90;82.20;;;;;;5085335;28;20454;-70
2021/06/26 11:17:45;;;;;;;10.03;6.53;;;25.00;75.20;;;;;;5093100;28;20422;-71
2021/06/26 11:20:30;;;;;;;11.50;5.60;;;25.00;81.60;;;;;;5088255;28;20823;-72
2021/06/26 11:23:19;;;;;;;7.70;5.63;;;25.00;72.50;;;;;;5080822;28;20529;-71
2021/06/26 11:26:06;;;;;;;7.60;5.60;;;24.90;77.10;;;;;;5093506;28;20439;-71
2021/06/26 11:28:51;;;;;;;7.97;6.17;;;24.80;75.40;;;;;;5084494;28;21068;-71
2021/06/26 11:31:37;;;;;;;6.93;5.93;;;24.80;74.20;;;;;;5074443;28;20408;-72
2021/06/26 11:34:23;;;;;;;8.57;5.53;;;24.90;76.80;;;;;;5081516;28;20448;-71
2021/06/26 11:37:10;;;;;;;5.97;5.23;;;25.00;75.50;;;;;;5093929;28;20440;-71
2021/06/26 11:39:58;;;;;;;5.17;4.40;;;25.10;73.00;;;;;;5081267;28;20467;-71
2021/06/26 11:42:51;;;;;;;6.33;5.30;;;25.10;65.20;;;;;;5080941;28;20459;-72
2021/06/26 11:45:38;;;;;;;7.03;5.30;;;25.20;65.70;;;;;;5080264;28;20969;-70
2021/06/26 11:48:24;;;;;;;5.43;4.90;;;25.40;65.10;;;;;;5078749;28;20452;-70
2021/06/26 11:51:10;;;;;;;7.10;4.70;;;25.60;65.30;;;;;;5086726;28;20473;-70
2021/06/26 11:53:55;;;;;;;6.13;4.40;;;25.70;67.40;;;;;;5080978;28;20582;-70
2021/06/26 11:56:51;;;;;;;5.73;4.60;;;25.70;66.00;;;;;;5085323;28;20914;-70
2021/06/26 11:59:45;;;;;;;6.97;5.27;;;25.60;66.50;;;;;;5088910;28;20462;-70
2021/06/26 12:02:33;;;;;;;4.80;4.10;;;25.50;69.30;;;;;;5089526;28;20476;-70
2021/06/26 12:05:20;;;;;;;5.10;4.60;;;25.50;68.60;;;;;;5081903;28;20957;-71
2021/06/26 12:08:06;;;;;;;6.20;4.70;;;25.30;67.20;;;;;;5084268;28;20431;-70
2021/06/26 12:10:52;;;;;;;5.00;4.50;;;25.10;68.80;;;;;;5078287;28;20453;-71
2021/06/26 12:13:41;;;;;;;4.80;4.30;;;25.30;71.10;;;;;;5082078;28;20591;-70
2021/06/26 12:16:28;;;;;;;9.70;4.40;;;25.30;67.40;;;;;;5090664;28;20423;-71
2021/06/26 12:19:15;;;;;;;5.23;4.47;;;25.50;65.60;;;;;;5079133;28;21079;-70
2021/06/26 12:22:02;;;;;;;6.57;4.87;;;25.60;63.70;;;;;;5084892;28;20420;-70
2021/06/26 12:24:47;;;;;;;5.70;4.60;;;25.70;63.80;;;;;;5086576;28;20961;-70
2021/06/26 12:27:33;;;;;;;5.30;4.73;;;25.80;64.10;;;;;;5080978;28;20498;-71
2021/06/26 12:30:21;;;;;;;6.73;4.57;;;25.70;62.90;;;;;;5084155;28;20471;-71
2021/06/26 12:33:08;;;;;;;6.60;4.43;;;25.60;62.50;;;;;;5092133;28;20838;-70
2021/06/26 12:35:54;;;;;;;7.90;5.47;;;25.50;60.70;;;;;;5087018;28;20542;-70
2021/06/26 12:38:40;;;;;;;7.13;4.30;;;25.50;65.30;;;;;;5087616;28;20497;-71
2021/06/26 12:41:27;;;;;;;7.70;4.50;;;25.40;63.20;;;;;;5082327;28;20419;-70
2021/06/26 12:44:19;;;;;;;5.70;5.07;;;25.30;66.90;;;;;;5081548;28;20478;-70
2021/06/26 12:47:07;;;;;;;4.63;4.13;;;25.30;64.00;;;;;;5077150;28;20562;-70
2021/06/26 12:50:08;;;;;;;5.03;4.33;;;25.20;64.10;;;;;;5084658;28;20479;-71
2021/06/26 12:52:53;;;;;;;6.90;4.33;;;25.00;63.90;;;;;;5084338;28;20972;-71
2021/06/26 12:55:39;;;;;;;10.03;4.87;;;25.00;65.60;;;;;;5087742;28;20481;-71
2021/06/26 12:58:25;;;;;;;4.90;4.33;;;24.90;68.50;;;;;;5088483;28;20446;-71
2021/06/26 13:01:10;;;;;;;7.40;4.67;;;24.90;66.30;;;;;;5083153;28;20424;-71
2021/06/26 13:03:58;;;;;;;7.70;4.47;;;24.80;67.50;;;;;;5084289;28;20850;-71
2021/06/26 13:06:50;;;;;;;6.17;4.40;;;24.70;66.50;;;;;;5083911;28;20422;-72
2021/06/26 13:09:37;;;;;;;5.63;4.93;;;24.60;66.40;;;;;;5084070;28;20943;-72
2021/06/26 13:12:24;;;;;;;7.83;4.90;;;24.40;69.20;;;;;;5082010;28;20580;-71
2021/06/26 13:15:11;;;;;;;6.33;4.83;;;24.40;72.20;;;;;;5078329;28;20590;-72
2021/06/26 13:17:57;;;;;;;12.80;5.53;;;24.40;75.60;;;;;;5082740;28;20436;-72
2021/06/26 13:20:44;;;;;;;5.20;4.70;;;24.40;75.80;;;;;;5084723;28;20509;-71
2021/06/26 13:23:30;;;;;;;5.57;4.60;;;24.40;75.20;;;;;;5091145;28;20482;-72
2021/06/26 13:26:15;;;;;;;6.87;4.20;;;24.60;68.70;;;;;;5080527;28;20526;-72
2021/06/26 13:29:02;;;;;;;6.70;4.47;;;24.70;68.60;;;;;;5079402;28;20891;-72
2021/06/26 13:31:48;;;;;;;8.27;4.60;;;24.80;68.90;;;;;;5087024;28;20446;-70
2021/06/26 13:34:34;;;;;;;4.50;4.10;;;24.90;65.40;;;;;;5089546;28;20958;-70
2021/06/26 13:37:21;;;;;;;5.40;4.33;;;25.00;60.00;;;;;;5087450;28;20455;-70
2021/06/26 13:40:08;;;;;;;4.70;4.23;;;25.20;60.70;;;;;;5079261;28;20483;-70
2021/06/26 13:42:53;;;;;;;5.43;4.27;;;25.10;58.80;;;;;;5071048;28;20472;-71
2021/06/26 13:45:39;;;;;;;5.63;4.30;;;25.00;58.60;;;;;;5073626;28;20532;-70
2021/06/26 13:48:25;;;;;;;7.73;4.53;;;25.10;59.20;;;;;;5079400;28;20448;-70
2021/06/26 13:51:10;;;;;;;6.00;4.67;;;25.20;62.40;;;;;;5072550;28;20457;-70
2021/06/26 13:53:57;;;;;;;5.70;4.87;;;25.40;61.10;;;;;;5086014;28;20940;-70
2021/06/26 13:56:43;;;;;;;5.20;4.47;;;25.60;59.80;;;;;;5084214;28;20452;-71
2021/06/26 13:59:29;;;;;;;5.67;4.67;;;25.70;61.80;;;;;;5082241;28;20455;-70
2021/06/26 14:02:14;;;;;;;6.63;4.77;;;25.90;61.30;;;;;;5090829;28;20491;-71
2021/06/26 14:05:00;;;;;;;5.90;4.93;;;26.20;59.60;;;;;;5090424;28;20472;-70
2021/06/26 14:07:46;;;;;;;5.63;4.60;;;26.30;56.30;;;;;;5082911;28;20420;-70
2021/06/26 14:10:33;;;;;;;6.03;4.37;;;26.50;55.70;;;;;;5083534;28;20893;-70
2021/06/26 14:13:19;;;;;;;5.90;4.43;;;26.70;58.80;;;;;;5076521;28;20420;-70